Time;durP1;ratioP1;P1;durP2;ratioP2;P2;SDS_P1;SDS_P2;PMS_P1;PMS_P2;Temp;Humidity;BMP_temperature;BMP_pressure;BME280_temperature;BME280_humidity;BME280_pressure;Samples;Min_cycle;Max_cycle;Signal;HPM_P1;HPM_P2
2023/01/13 00:01:51;;;;;;;;;;;;;;;;;;5004361;28;19936;-79
2023/01/13 00:04:17;;;;;;;;;;;;;;;;;;5002549;28;19921;-81
2023/01/13 00:06:43;;;;;;;;;;;;;;;;;;5004234;28;19936;-80
2023/01/13 00:09:09;;;;;;;;;;;;;;;;;;5002052;28;19929;-81
2023/01/13 00:11:35;;;;;;;;;;;;;;;;;;5003091;28;19964;-79
2023/01/13 03:11:47;;;;;;;;;;;;;;;;;;5041608;27;20017;-81
2023/01/13 03:14:14;;;;;;;;;;;;;;;;;;5003665;28;20040;-80
2023/01/13 03:16:40;;;;;;;;;;;;;;;;;;5016898;28;19920;-79
2023/01/13 03:19:06;;;;;;;;;;;;;;;;;;5022544;28;19924;-80
2023/01/13 03:21:35;;;;;;;;;;;;;;;;;;5027990;28;20648;-80
2023/01/13 03:24:01;;;;;;;;;;;;;;;;;;5007309;28;20370;-80
2023/01/13 03:26:27;;;;;;;;;;;;;;;;;;5022909;28;20345;-80
2023/01/13 03:28:53;;;;;;;;;;;;;;;;;;5023512;28;19930;-79
2023/01/13 03:31:19;;;;;;;;;;;;;;;;;;5021725;28;19978;-80
2023/01/13 03:33:45;;;;;;;;;;;;;;;;;;5010554;28;19931;-79
2023/01/13 03:36:11;;;;;;;;;;;;;;;;;;5020548;28;21928;-80
2023/01/13 03:38:37;;;;;;;;;;;;;;;;;;5021882;28;20408;-80
2023/01/13 03:41:03;;;;;;;;;;;;;;;;;;5007309;28;19935;-81
2023/01/13 03:46:14;;;;;;;;;;;;;;;;;;5014040;28;20390;-80
2023/01/13 03:48:40;;;;;;;;;;;;;;;;;;5021263;28;19928;-80
2023/01/13 03:51:06;;;;;;;;;;;;;;;;;;5023739;28;20114;-85
2023/01/13 03:53:32;;;;;;;;;;;;;;;;;;5021006;28;20302;-86
2023/01/13 03:55:58;;;;;;;;;;;;;;;;;;5023009;28;19934;-86
2023/01/13 03:58:24;;;;;;;;;;;;;;;;;;5022372;28;19928;-84
2023/01/13 04:00:50;;;;;;;;;;;;;;;;;;5021998;28;19925;-84
2023/01/13 04:03:16;;;;;;;;;;;;;;;;;;5023139;28;19970;-85
2023/01/13 04:05:42;;;;;;;;;;;;;;;;;;5023280;28;19995;-85
2023/01/13 04:08:08;;;;;;;;;;;;;;;;;;5021841;28;19929;-75
2023/01/13 04:10:33;;;;;;;;;;;;;;;;;;5021312;28;20567;-75
2023/01/13 04:12:59;;;;;;;;;;;;;;;;;;4982064;28;1142829;-75
2023/01/13 04:15:28;;;;;;;;;;;;;;;;;;5020114;28;20380;-75
2023/01/13 04:17:54;;;;;;;;;;;;;;;;;;5006762;28;20434;-75
2023/01/13 04:20:20;;;;;;;;;;;;;;;;;;5022473;28;19936;-75
2023/01/13 04:22:46;;;;;;;;;;;;;;;;;;5022797;28;20486;-75
2023/01/13 04:25:12;;;;;;;;;;;;;;;;;;5022511;28;20397;-75
2023/01/13 04:27:38;;;;;;;;;;;;;;;;;;5022230;28;20659;-75
2023/01/13 04:30:04;;;;;;;;;;;;;;;;;;5022349;28;20018;-75
2023/01/13 04:32:30;;;;;;;;;;;;;;;;;;5021547;28;19986;-75
2023/01/13 04:34:56;;;;;;;;;;;;;;;;;;5023018;28;19989;-75
2023/01/13 04:37:22;;;;;;;;;;;;;;;;;;5009858;28;20298;-75
2023/01/13 04:39:48;;;;;;;;;;;;;;;;;;5021961;28;20433;-75
2023/01/13 04:42:14;;;;;;;;;;;;;;;;;;5023258;28;20014;-75
2023/01/13 04:44:40;;;;;;;;;;;;;;;;;;5040464;28;20054;-75
2023/01/13 04:47:06;;;;;;;;;;;;;;;;;;5022577;28;20006;-75
2023/01/13 04:49:32;;;;;;;;;;;;;;;;;;5021487;28;19978;-75
2023/01/13 04:51:58;;;;;;;;;;;;;;;;;;5021183;28;19935;-75
2023/01/13 04:54:24;;;;;;;;;;;;;;;;;;5021982;28;19928;-75
2023/01/13 04:56:50;;;;;;;;;;;;;;;;;;5040501;28;19978;-75
2023/01/13 04:59:15;;;;;;;;;;;;;;;;;;5020301;28;19935;-75
2023/01/13 05:01:41;;;;;;;;;;;;;;;;;;5038981;28;20004;-75
2023/01/13 05:04:07;;;;;;;;;;;;;;;;;;5040007;28;19993;-75
2023/01/13 05:06:34;;;;;;;;;;;;;;;;;;5022323;28;19928;-85
2023/01/13 05:09:00;;;;;;;;;;;;;;;;;;5022404;28;19930;-85
2023/01/13 05:16:59;;;;;;;;;;;;;;;;;;5042011;28;20015;-85
2023/01/13 05:19:25;;;;;;;;;;;;;;;;;;5022483;28;20370;-84
2023/01/13 05:27:20;;;;;;;;;;;;;;;;;;5028338;28;20410;-86
2023/01/13 05:29:46;;;;;;;;;;;;;;;;;;5023514;28;19963;-86
2023/01/13 05:32:12;;;;;;;;;;;;;;;;;;5021988;28;20359;-86
2023/01/13 05:34:38;;;;;;;;;;;;;;;;;;5010791;28;20056;-84
2023/01/13 05:37:06;;;;;;;;;;;;;;;;;;5020318;28;19920;-84
2023/01/13 05:43:18;;;;;;;;;;;;;;;;;;5022198;28;19928;-84
2023/01/13 05:45:03;;;;;;;;;;;;;;;;;;5033884;28;19979;-84
2023/01/13 05:47:29;;;;;;;;;;;;;;;;;;5026401;28;19974;-81
2023/01/13 05:49:55;;;;;;;;;;;;;;;;;;5024486;28;19921;-79
2023/01/13 05:52:23;;;;;;;;;;;;;;;;;;5042686;28;19924;-78
2023/01/13 05:54:49;;;;;;;;;;;;;;;;;;5044923;28;19932;-80
2023/01/13 05:57:21;;;;;;;;;;;;;;;;;;5024102;28;19925;-78
2023/01/13 05:59:50;;;;;;;;;;;;;;;;;;5023020;28;19928;-78
2023/01/13 06:02:16;;;;;;;;;;;;;;;;;;5024159;28;19928;-86
2023/01/13 06:04:42;;;;;;;;;;;;;;;;;;5026238;28;20586;-83
2023/01/13 06:07:08;;;;;;;;;;;;;;;;;;5020030;28;19974;-89
2023/01/13 06:09:34;;;;;;;;;;;;;;;;;;5030714;28;19928;-91
2023/01/13 06:12:00;;;;;;;;;;;;;;;;;;5032669;28;19924;-91
2023/01/13 06:14:38;;;;;;;;;;;;;;;;;;5034574;28;19986;-91
2023/01/13 06:17:04;;;;;;;;;;;;;;;;;;5032694;28;19924;-91
2023/01/13 06:19:30;;;;;;;;;;;;;;;;;;5029468;28;19930;-85
2023/01/13 06:21:56;;;;;;;;;;;;;;;;;;5026738;28;19965;-82
2023/01/13 06:24:22;;;;;;;;;;;;;;;;;;5025715;28;19975;-83
2023/01/13 06:26:48;;;;;;;;;;;;;;;;;;5026006;28;20382;-87
2023/01/13 06:29:15;;;;;;;;;;;;;;;;;;5025972;28;20383;-87
2023/01/13 06:31:41;;;;;;;;;;;;;;;;;;5025764;28;19927;-86
2023/01/13 06:34:07;;;;;;;;;;;;;;;;;;5024093;28;19924;-85
2023/01/13 06:36:33;;;;;;;;;;;;;;;;;;5026232;28;19920;-84
2023/01/13 06:38:59;;;;;;;;;;;;;;;;;;5024861;28;19933;-87
2023/01/13 06:44:10;;;;;;;;;;;;;;;;;;5030994;28;20007;-87
2023/01/13 06:46:36;;;;;;;;;;;;;;;;;;5036281;28;19932;-88
2023/01/13 06:49:02;;;;;;;;;;;;;;;;;;5034526;28;19940;-87
2023/01/13 06:51:28;;;;;;;;;;;;;;;;;;5031609;28;20212;-87
2023/01/13 06:53:54;;;;;;;;;;;;;;;;;;5030844;28;19925;-87
2023/01/13 06:56:20;;;;;;;;;;;;;;;;;;5031952;28;19931;-89
2023/01/13 06:58:46;;;;;;;;;;;;;;;;;;5034898;28;20298;-88
2023/01/13 07:01:11;;;;;;;;;;;;;;;;;;5038132;28;19925;-89
2023/01/13 07:03:37;;;;;;;;;;;;;;;;;;5015631;28;20413;-87
2023/01/13 07:06:03;;;;;;;;;;;;;;;;;;5020735;28;20347;-90
2023/01/13 07:08:29;;;;;;;;;;;;;;;;;;5024504;28;19928;-87
2023/01/13 07:10:55;;;;;;;;;;;;;;;;;;5024345;28;19935;-88
2023/01/13 07:16:06;;;;;;;;;;;;;;;;;;5025508;28;19932;-88
2023/01/13 07:18:32;;;;;;;;;;;;;;;;;;5025882;28;19921;-81
2023/01/13 07:20:58;;;;;;;;;;;;;;;;;;5024798;28;20362;-81
2023/01/13 07:23:24;;;;;;;;;;;;;;;;;;5011384;28;20562;-81
2023/01/13 07:25:50;;;;;;;;;;;;;;;;;;5016565;28;19921;-81
2023/01/13 07:28:19;;;;;;;;;;;;;;;;;;5024089;28;20287;-81
2023/01/13 07:30:45;;;;;;;;;;;;;;;;;;5016043;28;20018;-80
2023/01/13 07:33:11;;;;;;;;;;;;;;;;;;5017812;28;19924;-82
2023/01/13 07:35:37;;;;;;;;;;;;;;;;;;5038107;28;20012;-81
2023/01/13 07:38:03;;;;;;;;;;;;;;;;;;5040236;28;19920;-86
2023/01/13 07:40:29;;;;;;;;;;;;;;;;;;5024195;28;19967;-86
2023/01/13 07:45:39;;;;;;;;;;;;;;;;;;5023090;28;20083;-86
2023/01/13 07:48:05;;;;;;;;;;;;;;;;;;5022308;28;20849;-85
2023/01/13 07:50:31;;;;;;;;;;;;;;;;;;5022258;28;19924;-85
2023/01/13 07:52:57;;;;;;;;;;;;;;;;;;5023518;28;19927;-87
2023/01/13 07:55:23;;;;;;;;;;;;;;;;;;5024159;28;19932;-86
2023/01/13 07:57:49;;;;;;;;;;;;;;;;;;5025508;28;20412;-86
2023/01/13 08:00:15;;;;;;;;;;;;;;;;;;5013572;28;20273;-86
2023/01/13 08:02:41;;;;;;;;;;;;;;;;;;5023898;28;20043;-85
2023/01/13 08:05:07;;;;;;;;;;;;;;;;;;5022000;28;19963;-84
2023/01/13 08:07:33;;;;;;;;;;;;;;;;;;5021678;28;19932;-84
2023/01/13 08:09:59;;;;;;;;;;;;;;;;;;5040142;28;20613;-87
2023/01/13 08:15:10;;;;;;;;;;;;;;;;;;5025253;28;19925;-90
2023/01/13 08:17:36;;;;;;;;;;;;;;;;;;5010955;28;20386;-87
2023/01/13 08:20:02;;;;;;;;;;;;;;;;;;5028427;28;19920;-88
2023/01/13 08:22:29;;;;;;;;;;;;;;;;;;5018357;28;20288;-86
2023/01/13 08:24:55;;;;;;;;;;;;;;;;;;5023961;28;19925;-86
2023/01/13 08:27:21;;;;;;;;;;;;;;;;;;5025674;28;19929;-92
2023/01/13 08:29:47;;;;;;;;;;;;;;;;;;5022945;28;19929;-90
2023/01/13 08:32:13;;;;;;;;;;;;;;;;;;5025766;28;19983;-89
2023/01/13 08:34:39;;;;;;;;;;;;;;;;;;5041544;28;19925;-81
2023/01/13 08:37:05;;;;;;;;;;;;;;;;;;5007368;28;19994;-78
2023/01/13 08:39:31;;;;;;;;;;;;;;;;;;5021722;28;19928;-79
2023/01/13 08:41:57;;;;;;;;;;;;;;;;;;5040250;28;19962;-80
2023/01/13 08:44:23;;;;;;;;;;;;;;;;;;5039420;28;20447;-80
2023/01/13 08:46:49;;;;;;;;;;;;;;;;;;5038572;28;19925;-78
2023/01/13 08:49:15;;;;;;;;;;;;;;;;;;5019077;28;19925;-77
2023/01/13 08:51:41;;;;;;;;;;;;;;;;;;5037508;28;20066;-78
2023/01/13 08:54:11;;;;;;;;;;;;;;;;;;5039961;28;20314;-89
2023/01/13 08:56:37;;;;;;;;;;;;;;;;;;5026344;28;21416;-78
2023/01/13 08:59:03;;;;;;;;;;;;;;;;;;5028928;28;19920;-78
2023/01/13 09:01:30;;;;;;;;;;;;;;;;;;5022810;28;19947;-78
2023/01/13 09:03:56;;;;;;;;;;;;;;;;;;5032437;28;19925;-78
2023/01/13 09:06:22;;;;;;;;;;;;;;;;;;5022831;28;19965;-79
2023/01/13 09:08:48;;;;;;;;;;;;;;;;;;5040481;28;19924;-78
2023/01/13 09:13:59;;;;;;;;;;;;;;;;;;5037628;28;19952;-78
2023/01/13 09:16:25;;;;;;;;;;;;;;;;;;5041808;28;19920;-78
2023/01/13 09:18:51;;;;;;;;;;;;;;;;;;5040797;28;19921;-78
2023/01/13 09:21:18;;;;;;;;;;;;;;;;;;5034247;28;19924;-78
2023/01/13 09:23:44;;;;;;;;;;;;;;;;;;5022706;28;20188;-79
2023/01/13 09:26:10;;;;;;;;;;;;;;;;;;5021333;28;19920;-78
2023/01/13 09:28:36;;;;;;;;;;;;;;;;;;5022074;28;19929;-78
2023/01/13 09:31:02;;;;;;;;;;;;;;;;;;5022427;28;19934;-78
2023/01/13 09:36:13;;;;;;;;;;;;;;;;;;5042355;28;20463;-89
2023/01/13 09:38:39;;;;;;;;;;;;;;;;;;5024582;28;19926;-86
2023/01/13 09:43:52;;;;;;;;;;;;;;;;;;5024897;28;20441;-91
2023/01/13 09:43:54;;;;;;;;;;;;;;;;;;5025253;28;21421;-88
2023/01/13 09:49:06;;;;;;;;;;;;;;;;;;5023005;28;19932;-89
2023/01/13 09:51:32;;;;;;;;;;;;;;;;;;5024933;28;19924;-88
2023/01/13 09:53:58;;;;;;;;;;;;;;;;;;5012990;28;19951;-86
2023/01/13 09:56:24;;;;;;;;;;;;;;;;;;5024677;28;19924;-87
2023/01/13 09:58:50;;;;;;;;;;;;;;;;;;5024570;28;19928;-87
2023/01/13 10:01:16;;;;;;;;;;;;;;;;;;5023282;28;20460;-85
2023/01/13 10:03:42;;;;;;;;;;;;;;;;;;5023035;28;19928;-87
2023/01/13 10:06:08;;;;;;;;;;;;;;;;;;5024549;28;19921;-86
2023/01/13 10:08:34;;;;;;;;;;;;;;;;;;5023933;28;19936;-87
2023/01/13 10:13:12;;;;;;;;;;;;;;;;;;5023220;28;19927;-86
2023/01/13 10:13:46;;;;;;;;;;;;;;;;;;5024381;28;20345;-87
2023/01/13 10:16:12;;;;;;;;;;;;;;;;;;5024148;28;19951;-87
2023/01/13 10:18:38;;;;;;;;;;;;;;;;;;5012037;28;20011;-89
2023/01/13 10:21:04;;;;;;;;;;;;;;;;;;5023753;28;19931;-86
2023/01/13 10:23:33;;;;;;;;;;;;;;;;;;5023933;28;19927;-86
2023/01/13 10:25:59;;;;;;;;;;;;;;;;;;5024259;28;19975;-89
2023/01/13 10:28:25;;;;;;;;;;;;;;;;;;5023580;28;21389;-88
2023/01/13 10:30:51;;;;;;;;;;;;;;;;;;5022793;28;19920;-89
2023/01/13 10:33:17;;;;;;;;;;;;;;;;;;5035840;28;19928;-87
2023/01/13 10:35:43;;;;;;;;;;;;;;;;;;5026931;28;19932;-87
2023/01/13 10:38:09;;;;;;;;;;;;;;;;;;5026458;28;19963;-88
2023/01/13 10:40:35;;;;;;;;;;;;;;;;;;5025468;28;20190;-87
2023/01/13 10:43:01;;;;;;;;;;;;;;;;;;5025707;28;19921;-86
2023/01/13 10:45:27;;;;;;;;;;;;;;;;;;5024625;28;19931;-86
2023/01/13 10:47:53;;;;;;;;;;;;;;;;;;5034233;28;20643;-85
2023/01/13 10:50:19;;;;;;;;;;;;;;;;;;5013636;28;20108;-76
2023/01/13 10:52:45;;;;;;;;;;;;;;;;;;5024619;28;19924;-76
2023/01/13 10:55:11;;;;;;;;;;;;;;;;;;5024631;28;20492;-77
2023/01/13 10:57:37;;;;;;;;;;;;;;;;;;5022750;28;19928;-77
2023/01/13 11:00:03;;;;;;;;;;;;;;;;;;5024257;28;19925;-77
2023/01/13 11:02:29;;;;;;;;;;;;;;;;;;5008196;28;19920;-76
2023/01/13 11:04:56;;;;;;;;;;;;;;;;;;5020033;28;20347;-77
2023/01/13 11:07:22;;;;;;;;;;;;;;;;;;5024290;28;20874;-77
2023/01/13 11:09:48;;;;;;;;;;;;;;;;;;5021793;28;20937;-74
2023/01/13 11:12:14;;;;;;;;;;;;;;;;;;5009006;28;20005;-75
2023/01/13 11:14:40;;;;;;;;;;;;;;;;;;5023445;28;19936;-75
2023/01/13 11:17:08;;;;;;;;;;;;;;;;;;5022390;28;19932;-75
2023/01/13 11:19:34;;;;;;;;;;;;;;;;;;5022223;28;19929;-75
2023/01/13 11:22:00;;;;;;;;;;;;;;;;;;5009061;28;19920;-75
2023/01/13 11:24:26;;;;;;;;;;;;;;;;;;5025843;28;19955;-75
2023/01/13 11:26:52;;;;;;;;;;;;;;;;;;5020277;28;19932;-75
2023/01/13 11:29:18;;;;;;;;;;;;;;;;;;5023737;28;19964;-86
2023/01/13 11:31:44;;;;;;;;;;;;;;;;;;5024775;28;20007;-85
2023/01/13 11:34:10;;;;;;;;;;;;;;;;;;5010460;28;19963;-87
2023/01/13 11:36:36;;;;;;;;;;;;;;;;;;5024581;28;19928;-87
2023/01/13 11:39:02;;;;;;;;;;;;;;;;;;5024342;28;19924;-86
2023/01/13 11:41:27;;;;;;;;;;;;;;;;;;5022654;28;19943;-86
2023/01/13 11:43:53;;;;;;;;;;;;;;;;;;5024791;28;19974;-86
2023/01/13 11:46:19;;;;;;;;;;;;;;;;;;5025183;28;19932;-85
2023/01/13 11:48:45;;;;;;;;;;;;;;;;;;5025675;28;19990;-85
2023/01/13 11:51:11;;;;;;;;;;;;;;;;;;5024389;28;19925;-88
2023/01/13 11:53:37;;;;;;;;;;;;;;;;;;5009832;28;20454;-87
2023/01/13 11:56:03;;;;;;;;;;;;;;;;;;5026057;28;20543;-85
2023/01/13 11:58:29;;;;;;;;;;;;;;;;;;5024493;28;21000;-85
2023/01/13 12:00:55;;;;;;;;;;;;;;;;;;5043286;28;19921;-86
2023/01/13 12:03:21;;;;;;;;;;;;;;;;;;5027381;28;19999;-86
2023/01/13 12:05:47;;;;;;;;;;;;;;;;;;5024280;28;20450;-86
2023/01/13 12:08:13;;;;;;;;;;;;;;;;;;5022902;28;19931;-85
2023/01/13 12:10:39;;;;;;;;;;;;;;;;;;5012742;28;19921;-86
2023/01/13 12:13:05;;;;;;;;;;;;;;;;;;5026654;28;20616;-87
2023/01/13 12:15:31;;;;;;;;;;;;;;;;;;5025862;28;20402;-88
2023/01/13 12:17:57;;;;;;;;;;;;;;;;;;5009848;28;20200;-88
2023/01/13 12:20:23;;;;;;;;;;;;;;;;;;5024224;28;19920;-88
2023/01/13 12:22:49;;;;;;;;;;;;;;;;;;5025782;28;20002;-88
2023/01/13 12:25:15;;;;;;;;;;;;;;;;;;5022914;28;19976;-77
2023/01/13 12:27:41;;;;;;;;;;;;;;;;;;5041907;28;19921;-78
2023/01/13 12:30:08;;;;;;;;;;;;;;;;;;5021756;28;19947;-77
2023/01/13 12:32:34;;;;;;;;;;;;;;;;;;5041310;28;20294;-77
2023/01/13 12:35:00;;;;;;;;;;;;;;;;;;5042117;28;19920;-79
2023/01/13 12:37:26;;;;;;;;;;;;;;;;;;5042180;28;19925;-78
2023/01/13 12:39:52;;;;;;;;;;;;;;;;;;5040670;28;19970;-78
2023/01/13 12:45:03;;;;;;;;;;;;;;;;;;5021996;28;20058;-78
2023/01/13 12:47:29;;;;;;;;;;;;;;;;;;5022780;28;19924;-78
2023/01/13 12:49:56;;;;;;;;;;;;;;;;;;5016547;28;19960;-78
2023/01/13 12:52:22;;;;;;;;;;;;;;;;;;5005894;28;21628;-78
2023/01/13 12:54:48;;;;;;;;;;;;;;;;;;5010807;28;19935;-78
2023/01/13 12:57:14;;;;;;;;;;;;;;;;;;5022484;28;20433;-77
2023/01/13 12:59:40;;;;;;;;;;;;;;;;;;5040392;28;19928;-77
2023/01/13 13:02:06;;;;;;;;;;;;;;;;;;5021095;28;20307;-78
2023/01/13 13:04:32;;;;;;;;;;;;;;;;;;5022650;28;19929;-78
2023/01/13 13:06:58;;;;;;;;;;;;;;;;;;5022477;28;21343;-78
2023/01/13 13:09:24;;;;;;;;;;;;;;;;;;5022043;28;19925;-78
2023/01/13 13:14:28;;;;;;;;;;;;;;;;;;5021342;28;19932;-78
2023/01/13 13:16:54;;;;;;;;;;;;;;;;;;5021882;28;19921;-77
2023/01/13 13:19:20;;;;;;;;;;;;;;;;;;5006786;28;19924;-77
2023/01/13 13:21:46;;;;;;;;;;;;;;;;;;5023367;28;19951;-87
2023/01/13 13:24:12;;;;;;;;;;;;;;;;;;5021857;28;20347;-89
2023/01/13 13:26:38;;;;;;;;;;;;;;;;;;5023297;28;19921;-88
2023/01/13 13:29:04;;;;;;;;;;;;;;;;;;5022987;28;20812;-87
2023/01/13 13:31:30;;;;;;;;;;;;;;;;;;5023043;28;19928;-88
2023/01/13 13:33:56;;;;;;;;;;;;;;;;;;5023322;28;20073;-86
2023/01/13 13:36:22;;;;;;;;;;;;;;;;;;5043221;28;19925;-87
2023/01/13 13:47:02;;;;;;;;;;;;;;;;;;5047983;28;19923;-90
2023/01/13 13:49:28;;;;;;;;;;;;;;;;;;5048721;28;19920;-88
2023/01/13 13:51:54;;;;;;;;;;;;;;;;;;5052525;28;19931;-88
2023/01/13 13:54:20;;;;;;;;;;;;;;;;;;5068155;28;19920;-88
2023/01/13 13:56:46;;;;;;;;;;;;;;;;;;5047938;28;19925;-88
2023/01/13 13:59:12;;;;;;;;;;;;;;;;;;5044441;28;19920;-88
2023/01/13 14:01:38;;;;;;;;;;;;;;;;;;5024105;28;19925;-88
2023/01/13 14:04:04;;;;;;;;;;;;;;;;;;5023021;28;19940;-87
2023/01/13 14:06:31;;;;;;;;;;;;;;;;;;5027318;28;19920;-87
2023/01/13 14:08:57;;;;;;;;;;;;;;;;;;5026509;28;19921;-88
2023/01/13 14:11:23;;;;;;;;;;;;;;;;;;5027100;28;19932;-86
2023/01/13 14:13:49;;;;;;;;;;;;;;;;;;5026494;28;19928;-88
2023/01/13 14:16:15;;;;;;;;;;;;;;;;;;5026572;28;19979;-89
2023/01/13 14:18:41;;;;;;;;;;;;;;;;;;5036839;28;19928;-76
2023/01/13 14:21:07;;;;;;;;;;;;;;;;;;5025450;28;19964;-76
2023/01/13 14:23:33;;;;;;;;;;;;;;;;;;5025430;28;20324;-75
2023/01/13 14:25:59;;;;;;;;;;;;;;;;;;5013144;28;20682;-76
2023/01/13 14:28:25;;;;;;;;;;;;;;;;;;5025336;28;20323;-75
2023/01/13 14:30:51;;;;;;;;;;;;;;;;;;5024152;28;19994;-75
2023/01/13 14:33:17;;;;;;;;;;;;;;;;;;5029529;28;20386;-75
2023/01/13 14:35:43;;;;;;;;;;;;;;;;;;5030080;28;19974;-75
2023/01/13 14:38:09;;;;;;;;;;;;;;;;;;5044154;28;19964;-85
2023/01/13 14:40:35;;;;;;;;;;;;;;;;;;5028319;28;19920;-88
2023/01/13 14:43:01;;;;;;;;;;;;;;;;;;5027599;28;19920;-86
2023/01/13 14:45:27;;;;;;;;;;;;;;;;;;5026913;28;19924;-87
2023/01/13 14:47:53;;;;;;;;;;;;;;;;;;5026116;28;19935;-86
2023/01/13 14:50:18;;;;;;;;;;;;;;;;;;5026023;28;19935;-87
2023/01/13 14:52:44;;;;;;;;;;;;;;;;;;5025913;28;20078;-86
2023/01/13 14:55:10;;;;;;;;;;;;;;;;;;5014690;28;19920;-88
2023/01/13 14:57:38;;;;;;;;;;;;;;;;;;5024890;28;19925;-75
2023/01/13 15:00:04;;;;;;;;;;;;;;;;;;5024281;28;19994;-75
2023/01/13 15:02:30;;;;;;;;;;;;;;;;;;5043303;28;20410;-75
2023/01/13 15:04:58;;;;;;;;;;;;;;;;;;5039685;28;19991;-75
2023/01/13 15:07:24;;;;;;;;;;;;;;;;;;5023466;28;19925;-76
2023/01/13 15:09:49;;;;;;;;;;;;;;;;;;5023458;28;19921;-75
2023/01/13 15:12:16;;;;;;;;;;;;;;;;;;5025071;28;20191;-75
2023/01/13 15:14:41;;;;;;;;;;;;;;;;;;5023322;28;19960;-85
2023/01/13 15:17:07;;;;;;;;;;;;;;;;;;5023878;28;20019;-75
2023/01/13 15:19:33;;;;;;;;;;;;;;;;;;5007342;28;20143;-75
2023/01/13 15:21:59;;;;;;;;;;;;;;;;;;5023782;28;19924;-76
2023/01/13 15:24:25;;;;;;;;;;;;;;;;;;5023548;28;20300;-76
2023/01/13 15:26:51;;;;;;;;;;;;;;;;;;5011921;28;20031;-76
2023/01/13 15:29:17;;;;;;;;;;;;;;;;;;5016827;28;19972;-76
2023/01/13 15:31:43;;;;;;;;;;;;;;;;;;5024959;28;19924;-76
2023/01/13 15:34:09;;;;;;;;;;;;;;;;;;5012496;28;19974;-90
2023/01/13 15:36:36;;;;;;;;;;;;;;;;;;5010766;28;19924;-88
2023/01/13 15:39:02;;;;;;;;;;;;;;;;;;5026082;28;19928;-88
2023/01/13 15:46:58;;;;;;;;;;;;;;;;;;5025202;28;19928;-88
2023/01/13 15:49:24;;;;;;;;;;;;;;;;;;5023539;28;19935;-87
2023/01/13 15:51:50;;;;;;;;;;;;;;;;;;5025537;28;19931;-89
2023/01/13 15:54:18;;;;;;;;;;;;;;;;;;5027950;28;19924;-89
2023/01/13 15:56:44;;;;;;;;;;;;;;;;;;5024757;28;19928;-89
2023/01/13 15:59:10;;;;;;;;;;;;;;;;;;5024971;28;19925;-88
2023/01/13 16:01:36;;;;;;;;;;;;;;;;;;5024207;28;19924;-89
2023/01/13 16:04:02;;;;;;;;;;;;;;;;;;5024711;28;19921;-88
2023/01/13 16:06:28;;;;;;;;;;;;;;;;;;5025041;28;20033;-88
2023/01/13 16:08:54;;;;;;;;;;;;;;;;;;5022215;28;20015;-88
2023/01/13 16:11:20;;;;;;;;;;;;;;;;;;5028766;28;19920;-87
2023/01/13 16:13:46;;;;;;;;;;;;;;;;;;5026318;28;20382;-89
2023/01/13 16:16:12;;;;;;;;;;;;;;;;;;5028142;28;19924;-89
2023/01/13 16:18:38;;;;;;;;;;;;;;;;;;5048272;28;20337;-90
2023/01/13 16:21:04;;;;;;;;;;;;;;;;;;5028960;28;19924;-86
2023/01/13 16:23:30;;;;;;;;;;;;;;;;;;5018393;28;20019;-87
2023/01/13 16:25:56;;;;;;;;;;;;;;;;;;5038538;28;19971;-86
2023/01/13 16:28:22;;;;;;;;;;;;;;;;;;5026847;28;19928;-86
2023/01/13 16:30:48;;;;;;;;;;;;;;;;;;5026240;28;19928;-88
2023/01/13 16:33:14;;;;;;;;;;;;;;;;;;5031462;28;20276;-86
2023/01/13 16:35:40;;;;;;;;;;;;;;;;;;5018580;28;19932;-88
2023/01/13 16:38:06;;;;;;;;;;;;;;;;;;5039208;28;19924;-87
2023/01/13 16:40:32;;;;;;;;;;;;;;;;;;5022288;28;20001;-87
2023/01/13 16:42:59;;;;;;;;;;;;;;;;;;5009598;28;19932;-88
2023/01/13 16:45:25;;;;;;;;;;;;;;;;;;5023322;28;19924;-85
2023/01/13 16:47:51;;;;;;;;;;;;;;;;;;5041495;28;20251;-85
2023/01/13 16:50:17;;;;;;;;;;;;;;;;;;5023456;28;19951;-75
2023/01/13 16:52:43;;;;;;;;;;;;;;;;;;5039084;28;19928;-75
2023/01/13 16:55:09;;;;;;;;;;;;;;;;;;5019845;28;20390;-76
2023/01/13 16:57:35;;;;;;;;;;;;;;;;;;5033688;28;19994;-76
2023/01/13 17:00:01;;;;;;;;;;;;;;;;;;5021824;28;19920;-76
2023/01/13 17:02:27;;;;;;;;;;;;;;;;;;5021760;28;19924;-76
2023/01/13 17:04:53;;;;;;;;;;;;;;;;;;5020737;28;19928;-76
2023/01/13 17:07:19;;;;;;;;;;;;;;;;;;5023459;28;19943;-76
2023/01/13 17:09:45;;;;;;;;;;;;;;;;;;5040048;28;19924;-86
2023/01/13 17:12:11;;;;;;;;;;;;;;;;;;5021516;28;19928;-86
2023/01/13 17:14:37;;;;;;;;;;;;;;;;;;5021959;28;20450;-86
2023/01/13 17:17:03;;;;;;;;;;;;;;;;;;5028255;28;20169;-86
2023/01/13 17:19:29;;;;;;;;;;;;;;;;;;5016148;28;19967;-86
2023/01/13 17:21:55;;;;;;;;;;;;;;;;;;5022450;28;20008;-86
2023/01/13 17:24:24;;;;;;;;;;;;;;;;;;5022780;28;20018;-86
2023/01/13 17:26:50;;;;;;;;;;;;;;;;;;5021987;28;19983;-88
2023/01/13 17:29:16;;;;;;;;;;;;;;;;;;5016985;28;20417;-77
2023/01/13 17:31:42;;;;;;;;;;;;;;;;;;5022217;28;19995;-77
2023/01/13 17:34:08;;;;;;;;;;;;;;;;;;5004959;28;20481;-78
2023/01/13 17:36:34;;;;;;;;;;;;;;;;;;5020708;28;19983;-77
2023/01/13 17:39:00;;;;;;;;;;;;;;;;;;5026514;28;19932;-77
2023/01/13 17:41:26;;;;;;;;;;;;;;;;;;5026579;28;19983;-77
2023/01/13 17:43:52;;;;;;;;;;;;;;;;;;5025521;28;20879;-77
2023/01/13 17:46:18;;;;;;;;;;;;;;;;;;5025673;28;19975;-77
2023/01/13 17:48:44;;;;;;;;;;;;;;;;;;5025913;28;19928;-89
2023/01/13 17:51:10;;;;;;;;;;;;;;;;;;5028829;28;20011;-87
2023/01/13 17:53:39;;;;;;;;;;;;;;;;;;5028691;28;19932;-90
2023/01/13 17:56:05;;;;;;;;;;;;;;;;;;5029476;28;19920;-87
2023/01/13 17:58:31;;;;;;;;;;;;;;;;;;5028256;28;19940;-89
2023/01/13 18:00:57;;;;;;;;;;;;;;;;;;5028931;28;20446;-89
2023/01/13 18:03:23;;;;;;;;;;;;;;;;;;5025850;28;20319;-87
2023/01/13 18:05:49;;;;;;;;;;;;;;;;;;5032250;28;19926;-87
2023/01/13 18:08:15;;;;;;;;;;;;;;;;;;5026948;28;19924;-90
2023/01/13 18:10:41;;;;;;;;;;;;;;;;;;5015267;28;19924;-88
2023/01/13 18:13:08;;;;;;;;;;;;;;;;;;5026269;28;19924;-88
2023/01/13 18:15:34;;;;;;;;;;;;;;;;;;5036984;28;19924;-85
2023/01/13 18:18:00;;;;;;;;;;;;;;;;;;5026923;28;19931;-89
2023/01/13 18:28:40;;;;;;;;;;;;;;;;;;5026769;28;19937;-88
2023/01/13 18:31:06;;;;;;;;;;;;;;;;;;5027239;28;19948;-89
2023/01/13 18:33:32;;;;;;;;;;;;;;;;;;5013666;28;20055;-89
2023/01/13 18:35:58;;;;;;;;;;;;;;;;;;5036292;28;19921;-89
2023/01/13 18:38:27;;;;;;;;;;;;;;;;;;5026824;28;21374;-88
2023/01/13 18:40:53;;;;;;;;;;;;;;;;;;5027512;28;19924;-90
2023/01/13 18:43:19;;;;;;;;;;;;;;;;;;5027171;28;20668;-87
2023/01/13 18:45:45;;;;;;;;;;;;;;;;;;5030346;28;19920;-87
2023/01/13 18:48:11;;;;;;;;;;;;;;;;;;5029788;28;19974;-87
2023/01/13 18:50:37;;;;;;;;;;;;;;;;;;5029599;28;20054;-90
2023/01/13 18:53:03;;;;;;;;;;;;;;;;;;5029328;28;20370;-86
2023/01/13 18:55:28;;;;;;;;;;;;;;;;;;5030045;28;20011;-89
2023/01/13 18:57:54;;;;;;;;;;;;;;;;;;5028805;28;19931;-88
2023/01/13 19:00:21;;;;;;;;;;;;;;;;;;5030369;28;19920;-88
2023/01/13 19:02:47;;;;;;;;;;;;;;;;;;5028880;28;20006;-86
2023/01/13 19:05:13;;;;;;;;;;;;;;;;;;5009137;28;20183;-87
2023/01/13 19:07:42;;;;;;;;;;;;;;;;;;5025139;28;19920;-76
2023/01/13 19:10:08;;;;;;;;;;;;;;;;;;5024160;28;19928;-76
2023/01/13 19:12:34;;;;;;;;;;;;;;;;;;5034957;28;20015;-76
2023/01/13 19:15:00;;;;;;;;;;;;;;;;;;5021854;28;19947;-76
2023/01/13 19:17:28;;;;;;;;;;;;;;;;;;5015139;28;20286;-80
2023/01/13 19:20:07;;;;;;;;;;;;;;;;;;5024570;28;19959;-77
2023/01/13 19:22:33;;;;;;;;;;;;;;;;;;5028987;28;19920;-75
2023/01/13 19:24:59;;;;;;;;;;;;;;;;;;5022216;28;19931;-79
2023/01/13 19:27:28;;;;;;;;;;;;;;;;;;5021751;28;19924;-86
2023/01/13 19:29:59;;;;;;;;;;;;;;;;;;5022981;28;19925;-82
2023/01/13 19:32:25;;;;;;;;;;;;;;;;;;5024223;28;19931;-93
2023/01/13 19:34:52;;;;;;;;;;;;;;;;;;5027995;28;19924;-93
2023/01/13 19:37:18;;;;;;;;;;;;;;;;;;5025158;28;20541;-93
2023/01/13 19:39:43;;;;;;;;;;;;;;;;;;5027762;28;19920;-92
2023/01/13 19:47:39;;;;;;;;;;;;;;;;;;5036167;28;19925;-91
2023/01/13 19:50:06;;;;;;;;;;;;;;;;;;5028036;28;20066;-86
2023/01/13 19:52:32;;;;;;;;;;;;;;;;;;5023574;28;19920;-88
2023/01/13 19:54:58;;;;;;;;;;;;;;;;;;5008875;28;19921;-87
2023/01/13 19:57:25;;;;;;;;;;;;;;;;;;5022204;28;20508;-87
2023/01/13 19:59:50;;;;;;;;;;;;;;;;;;5023357;28;19933;-87
2023/01/13 20:02:26;;;;;;;;;;;;;;;;;;5022695;28;19920;-83
2023/01/13 20:04:54;;;;;;;;;;;;;;;;;;5023429;28;20234;-78
2023/01/13 20:07:26;;;;;;;;;;;;;;;;;;5025821;28;19978;-77
2023/01/13 20:09:52;;;;;;;;;;;;;;;;;;5019373;28;20001;-78
2023/01/13 20:12:21;;;;;;;;;;;;;;;;;;5021110;28;19990;-77
2023/01/13 20:14:48;;;;;;;;;;;;;;;;;;5021646;28;19925;-77
2023/01/13 20:17:14;;;;;;;;;;;;;;;;;;5019986;28;19928;-78
2023/01/13 20:19:40;;;;;;;;;;;;;;;;;;5021342;28;19956;-78
2023/01/13 20:22:06;;;;;;;;;;;;;;;;;;5022724;28;19935;-83
2023/01/13 20:24:32;;;;;;;;;;;;;;;;;;5045340;28;19932;-87
2023/01/13 20:26:59;;;;;;;;;;;;;;;;;;5030823;28;19920;-86
2023/01/13 20:29:25;;;;;;;;;;;;;;;;;;5031838;28;20037;-82
2023/01/13 20:31:51;;;;;;;;;;;;;;;;;;5026921;28;19942;-84
2023/01/13 20:34:18;;;;;;;;;;;;;;;;;;5028247;28;19931;-83
2023/01/13 20:36:44;;;;;;;;;;;;;;;;;;5030148;28;19931;-86
2023/01/13 20:39:09;;;;;;;;;;;;;;;;;;5025089;28;19920;-75
2023/01/13 20:44:23;;;;;;;;;;;;;;;;;;5020034;28;19931;-83
2023/01/13 20:46:53;;;;;;;;;;;;;;;;;;5018986;28;20065;-79
2023/01/13 20:49:22;;;;;;;;;;;;;;;;;;5014919;28;19925;-80